Data for 06/24/2018

Time Sea-Level Adjusted Pressure Absolute Pressure Temperature Relative Humidity Dew Point   
(mb) (inHg) (mb) (inHg) (C) (F) (%) (C) (F)
00:05 1021 30.15 850 25.1 11.2 52.2 69 5.7 42.3
00:10 1021 30.15 850 25.1 11.2 52.1 69 5.8 42.4
00:15 1021 30.15 850 25.1 11.2 52.2 68 5.5 41.9
00:20 1021 30.15 850 25.1 11.3 52.3 67 5.5 41.9
00:25 1021 30.15 850 25.1 11.3 52.3 69 5.8 42.5
00:30 1021 30.15 850 25.1 11.2 52.2 70 5.9 42.7
00:35 1021 30.15 850 25.1 11.2 52.1 70 5.9 42.6
00:40 1021 30.15 850 25.1 11.1 52 70 5.8 42.5
00:45 1021 30.15 850 25.1 11 51.9 69 5.7 42.2
00:50 1021 30.15 850 25.1 11 51.8 70 5.7 42.2
00:55 1021 30.15 850 25.1 11 51.7 70 5.8 42.4
01:00 1021 30.15 850 25.1 10.9 51.7 69 5.5 41.8
01:05 1021 30.15 850 25.1 11 51.7 69 5.5 42
01:10 1021 30.15 850 25.1 10.9 51.7 70 5.6 42.1
01:15 1021 30.15 850 25.1 10.9 51.5 69 5.4 41.7
01:20 1021 30.15 850 25.1 10.8 51.5 69 5.4 41.7
01:25 1021 30.15 850 25.1 10.8 51.4 69 5.4 41.8
01:30 1021 30.15 850 25.1 10.7 51.3 69 5.4 41.7
01:35 1021 30.15 850 25.1 10.7 51.3 70 5.4 41.8
01:40 1021 30.15 850 25.1 10.7 51.3 70 5.5 41.8
01:45 1021 30.15 850 25.1 10.6 51.1 70 5.4 41.7
01:50 1021 30.15 850 25.1 10.6 51.1 70 5.4 41.8
01:55 1021 30.15 850 25.1 10.6 51.2 70 5.5 41.9
02:00 1021 30.15 850 25.1 10.6 51.1 70 5.4 41.7
02:05 1021 30.15 851 25.13 10.6 51.1 71 5.5 42
02:10 1021 30.15 851 25.13 10.7 51.2 71 5.6 42.1
02:15 1021 30.15 851 25.13 10.7 51.2 71 5.7 42.3
02:20 1021 30.15 851 25.13 10.7 51.2 71 5.7 42.3
02:25 1021 30.15 851 25.13 10.7 51.2 70 5.6 42
02:30 1021 30.15 851 25.13 10.6 51.1 70 5.4 41.8
02:35 1021 30.15 851 25.13 10.6 51.1 71 5.5 42
02:40 1021 30.15 851 25.13 10.6 51 71 5.5 42
02:45 1021 30.15 851 25.13 10.5 50.9 70 5.3 41.5
02:50 1021 30.15 850 25.1 10.5 50.9 70 5.3 41.5
02:55 1021 30.15 850 25.1 10.5 50.9 70 5.2 41.4
03:00 1021 30.15 850 25.1 10.5 50.9 70 5.3 41.6
03:05 1021 30.15 850 25.1 10.5 50.9 70 5.4 41.7
03:10 1021 30.15 850 25.1 10.5 50.9 71 5.5 41.8
03:15 1021 30.15 850 25.1 10.4 50.7 71 5.4 41.8
03:20 1021 30.15 850 25.1 10.3 50.6 72 5.5 41.8
03:25 1021 30.15 850 25.1 10.3 50.5 72 5.5 41.9
03:30 1021 30.15 850 25.1 10.3 50.5 71 5.4 41.7
03:35 1021 30.15 851 25.13 10.3 50.5 72 5.4 41.7
03:40 1021 30.15 851 25.13 10.3 50.5 72 5.5 41.9
03:45 1021 30.15 851 25.13 10.3 50.6 73 5.7 42.2
03:50 1021 30.15 851 25.13 10.3 50.5 74 5.9 42.6
03:55 1021 30.15 851 25.13 10.1 50.2 75 6 42.7
04:00 1021 30.15 851 25.13 10 50 76 6 42.8
04:05 1021 30.15 851 25.13 10.1 50.1 75 5.9 42.7
04:10 1021 30.15 851 25.13 10.1 50.2 76 6 42.9
04:15 1021 30.15 851 25.13 10.1 50.2 77 6.3 43.3
04:20 1021 30.15 851 25.13 10 49.9 77 6.2 43.2
04:25 1022 30.18 851 25.13 9.9 49.8 78 6.3 43.3
04:30 1022 30.18 851 25.13 10 50.1 78 6.4 43.5
04:35 1022 30.18 851 25.13 10.1 50.2 77 6.4 43.5
04:40 1022 30.18 851 25.13 10.2 50.3 77 6.4 43.5
04:45 1022 30.18 851 25.13 10.2 50.3 77 6.4 43.5
04:50 1022 30.18 851 25.13 10.2 50.3 76 6.2 43.1
04:55 1022 30.18 851 25.13 10.2 50.4 76 6.2 43.2
05:00 1022 30.18 851 25.13 10.3 50.6 75 6.2 43.1
05:05 1022 30.18 851 25.13 10.4 50.6 75 6.2 43.2
05:10 1022 30.18 851 25.13 10.4 50.7 75 6.1 43
05:15 1022 30.18 851 25.13 10.5 50.9 74 6.1 42.9
05:20 1022 30.18 851 25.13 10.5 51 75 6.2 43.2
05:25 1022 30.18 851 25.13 10.5 50.9 76 6.5 43.7
05:30 1022 30.18 851 25.13 10.2 50.3 78 6.6 43.8
05:35 1022 30.18 851 25.13 10 50 80 6.7 44
05:40 1022 30.18 851 25.13 9.9 49.7 80 6.6 43.9
05:45 1022 30.18 851 25.13 9.8 49.6 80 6.5 43.7
05:50 1022 30.18 851 25.13 9.8 49.6 79 6.4 43.5
05:55 1022 30.18 851 25.13 9.9 49.8 79 6.4 43.5
06:00 1022 30.18 851 25.13 9.9 49.8 79 6.4 43.6
06:05 1022 30.18 851 25.13 9.9 49.8 80 6.6 43.8
06:10 1022 30.18 851 25.13 9.8 49.7 81 6.7 44
06:15 1022 30.18 852 25.16 9.8 49.6 81 6.7 44.1
06:20 1022 30.18 852 25.16 9.7 49.5 80 6.5 43.7
06:25 1022 30.18 852 25.16 9.7 49.4 80 6.4 43.5
06:30 1022 30.18 852 25.16 9.7 49.4 80 6.4 43.4
06:35 1022 30.18 852 25.16 9.7 49.5 80 6.4 43.6
06:40 1022 30.18 852 25.16 9.7 49.4 81 6.5 43.7
06:45 1022 30.18 852 25.16 9.6 49.3 81 6.5 43.8
06:50 1022 30.18 852 25.16 9.6 49.3 81 6.5 43.8
06:55 1023 30.21 852 25.16 9.7 49.4 81 6.6 43.8
07:00 1023 30.21 852 25.16 9.8 49.6 80 6.6 43.9
07:05 1023 30.21 852 25.16 9.9 49.9 80 6.6 43.9
07:10 1023 30.21 852 25.16 10.3 50.5 79 6.7 44.1
07:15 1023 30.21 852 25.16 10.6 51 76 6.6 43.9
07:20 1023 30.21 852 25.16 10.8 51.4 75 6.6 43.8
07:25 1023 30.21 852 25.16 11 51.7 76 6.9 44.5
07:30 1023 30.21 852 25.16 11.1 51.9 76 7 44.7
07:35 1023 30.21 852 25.16 11.3 52.3 75 6.9 44.5
07:40 1023 30.21 852 25.16 11.5 52.7 76 7.4 45.3
07:45 1023 30.21 852 25.16 11.8 53.3 74 7.3 45.2
07:50 1023 30.21 852 25.16 12 53.7 71 7 44.5
07:55 1023 30.21 852 25.16 12.2 53.9 74 7.6 45.8
08:00 1023 30.21 852 25.16 12.4 54.4 72 7.6 45.7
08:05 1023 30.21 852 25.16 12.4 54.3 74 7.9 46.3
08:10 1023 30.21 852 25.16 12.5 54.5 73 7.8 46
08:15 1023 30.21 852 25.16 12.6 54.6 72 7.6 45.7
08:20 1023 30.21 852 25.16 12.5 54.5 72 7.5 45.6
08:25 1023 30.21 852 25.16 12.6 54.7 70 7.4 45.3
08:30 1023 30.21 852 25.16 12.8 55.1 65 6.5 43.6
08:35 1023 30.21 852 25.16 12.9 55.2 62 5.7 42.3
08:40 1023 30.21 852 25.16 12.6 54.7 67 6.6 43.9
08:45 1023 30.21 852 25.16 12.7 54.9 65 6.3 43.4
08:50 1023 30.21 852 25.16 12.8 55.1 66 6.7 44
08:55 1023 30.21 852 25.16 13 55.4 65 6.7 44.1
09:00 1023 30.21 852 25.16 13.1 55.6 63 6.3 43.4
09:05 1023 30.21 852 25.16 13 55.4 64 6.4 43.4
09:10 1023 30.21 852 25.16 13.1 55.6 62 6 42.8
09:15 1023 30.21 852 25.16 13 55.5 64 6.5 43.6
09:20 1023 30.21 852 25.16 13.3 55.9 61 6.1 42.9
09:25 1023 30.21 852 25.16 13.6 56.4 61 6.2 43.1
09:30 1023 30.21 852 25.16 13.8 56.8 58 5.8 42.5
09:35 1023 30.21 852 25.16 13.7 56.7 59 6 42.8
09:40 1023 30.21 852 25.16 14.1 57.4 55 5.2 41.4
09:45 1023 30.21 852 25.16 14.9 58.9 53 5.5 42
09:50 1023 30.21 852 25.16 15.4 59.7 52 5.6 42.1
09:55 1023 30.21 852 25.16 16.1 60.9 51 6 42.8
10:00 1023 30.21 852 25.16 16.2 61.2 53 6.7 44
10:05 1023 30.21 852 25.16 15.8 60.4 53 6.2 43.2
10:10 1023 30.21 852 25.16 16.1 61 52 6.3 43.3
10:15 1023 30.21 852 25.16 15.6 60.1 54 6.3 43.4
10:20 1023 30.21 852 25.16 16.2 61.2 50 6 42.9
10:25 1023 30.21 852 25.16 16.1 61 51 6.2 43.2
10:30 1023 30.21 852 25.16 15.9 60.6 53 6.5 43.7
10:35 1023 30.21 852 25.16 15.7 60.3 53 6.1 43
10:40 1023 30.21 852 25.16 16.4 61.5 49 5.8 42.4
10:45 1023 30.21 852 25.16 17.3 63.1 48 6.3 43.3
10:50 1023 30.21 852 25.16 17.5 63.5 48 6.4 43.5
10:55 1023 30.21 852 25.16 16.6 61.9 50 6.3 43.3
11:00 1023 30.21 852 25.16 16.9 62.4 49 6.1 43
11:05 1023 30.21 852 25.16 16.2 61.1 54 6.9 44.4
11:10 1023 30.21 852 25.16 17 62.6 49 6.4 43.5
11:15 1023 30.21 852 25.16 17.4 63.4 48 6.5 43.7
11:20 1023 30.21 852 25.16 17.2 63 52 7.5 45.4
11:25 1023 30.21 852 25.16 16.4 61.5 52 6.5 43.7
11:30 1023 30.21 852 25.16 16.5 61.7 50 6.3 43.3
11:35 1023 30.21 852 25.16 16.8 62.3 51 6.7 44.1
11:40 1023 30.21 852 25.16 16.8 62.2 51 6.6 43.8
11:45 1023 30.21 852 25.16 16.9 62.4 51 6.9 44.5
11:50 1023 30.21 852 25.16 17 62.6 51 6.9 44.4
11:55 1023 30.21 852 25.16 17.1 62.7 49 6.5 43.7
12:00 1023 30.21 852 25.16 17.1 62.7 50 6.6 43.9
12:05 1023 30.21 852 25.16 17.5 63.5 46 6 42.8
12:10 1023 30.21 852 25.16 17.5 63.4 50 7.1 44.8
12:15 1023 30.21 852 25.16 17.8 64 50 7.3 45.1
12:20 1023 30.21 852 25.16 18 64.4 47 6.5 43.7
12:25 1023 30.21 852 25.16 18 64.4 49 7.3 45.2
12:30 1023 30.21 852 25.16 18 64.5 46 6.4 43.5
12:35 1023 30.21 852 25.16 17.7 63.9 51 7.7 45.8
12:40 1023 30.21 852 25.16 16.8 62.3 52 7.1 44.7
12:45 1023 30.21 852 25.16 17 62.6 48 5.9 42.6
12:50 1023 30.21 852 25.16 17.4 63.3 48 6.5 43.6
12:55 1023 30.21 852 25.16 18.2 64.7 45 6.2 43.1
13:00 1023 30.21 852 25.16 18.3 65 48 7.2 44.9
13:05 1023 30.21 852 25.16 18.2 64.8 44 5.9 42.6
13:10 1023 30.21 852 25.16 18.8 65.8 45 6.8 44.2
13:15 1023 30.21 852 25.16 18.9 66 42 5.9 42.6
13:20 1023 30.21 852 25.16 18.4 65.2 44 6.3 43.3
13:25 1023 30.21 852 25.16 18.5 65.3 43 5.9 42.6
13:30 1023 30.21 852 25.16 19 66.3 44 6.7 44
13:35 1023 30.21 852 25.16 18.8 65.8 46 7 44.7
13:40 1023 30.21 852 25.16 18.8 65.8 46 6.9 44.5
13:45 1023 30.21 852 25.16 18.8 65.8 45 6.7 44.1
13:50 1023 30.21 852 25.16 19.1 66.3 43 6.2 43.2
13:55 1023 30.21 852 25.16 19.4 66.8 45 7.2 44.9
14:00 1023 30.21 852 25.16 19.8 67.7 43 7.2 45
14:05 1023 30.21 852 25.16 19.5 67 43 6.6 43.9
14:10 1023 30.21 852 25.16 19.1 66.4 43 6.3 43.3
14:15 1023 30.21 852 25.16 19.3 66.7 47 7.8 46
14:20 1023 30.21 852 25.16 18.9 66.1 46 7.3 45.1
14:25 1023 30.21 852 25.16 19.6 67.2 45 7.4 45.3
14:30 1023 30.21 852 25.16 19.9 67.8 44 7.4 45.4
14:35 1023 30.21 852 25.16 20 68 44 7.5 45.5
14:40 1023 30.21 852 25.16 20.4 68.7 42 7.3 45.1
14:45 1023 30.21 852 25.16 20.6 69 43 7.8 46
14:50 1023 30.21 852 25.16 20.2 68.4 46 8.2 46.8
14:55 1023 30.21 852 25.16 19.7 67.5 43 7 44.5
15:00 1023 30.21 852 25.16 19.9 67.8 43 7.1 44.8
15:05 1023 30.21 852 25.16 20.5 68.8 44 7.8 46.1
15:10 1023 30.21 852 25.16 19.8 67.6 49 8.9 48.1
15:15 1023 30.21 852 25.16 19.3 66.8 49 8.6 47.4
15:20 1023 30.21 852 25.16 19 66.3 47 7.6 45.7
15:25 1023 30.21 852 25.16 18.9 66.1 51 8.7 47.7
15:30 1023 30.21 852 25.16 18.6 65.5 52 8.6 47.4
15:35 1023 30.21 852 25.16 18.6 65.6 51 8.3 47
15:40 1023 30.21 852 25.16 19 66.2 49 8.1 46.6
15:45 1023 30.21 852 25.16 18.5 65.3 49 7.8 46.1
15:50 1023 30.21 852 25.16 18.6 65.6 51 8.3 46.9
15:55 1023 30.21 852 25.16 18.3 64.9 50 7.7 45.8
16:00 1023 30.21 852 25.16 18.8 65.8 47 7.3 45.2
16:05 1022 30.18 852 25.16 20.1 68.2 42 7.1 44.8
16:10 1022 30.18 852 25.16 20.5 68.9 39 6.2 43.2
16:15 1022 30.18 852 25.16 20.3 68.6 42 7.2 44.9
16:20 1022 30.18 852 25.16 20.5 69 44 8 46.4
16:25 1023 30.21 852 25.16 20.8 69.5 41 7.2 44.9
16:30 1023 30.21 852 25.16 21.1 69.9 41 7.4 45.3
16:35 1022 30.18 852 25.16 21 69.7 42 7.8 46.1
16:40 1022 30.18 852 25.16 21 69.7 41 7.5 45.4
16:45 1023 30.21 852 25.16 21 69.7 41 7.3 45.1
16:50 1023 30.21 852 25.16 21.1 70 42 7.9 46.2
16:55 1022 30.18 852 25.16 20.9 69.6 43 7.9 46.2
17:00 1022 30.18 852 25.16 20.5 69 41 6.8 44.3
17:05 1022 30.18 852 25.16 20.8 69.4 41 7.3 45.2
17:10 1022 30.18 852 25.16 21.2 70.2 39 6.9 44.5
17:15 1022 30.18 852 25.16 21.2 70.2 39 7 44.6
17:20 1022 30.18 852 25.16 21.2 70.2 42 7.8 46
17:25 1022 30.18 852 25.16 21.2 70.2 40 7.2 44.9
17:30 1022 30.18 851 25.13 21.3 70.3 39 6.9 44.5
17:35 1022 30.18 851 25.13 21.7 71.1 39 7.4 45.4
17:40 1022 30.18 851 25.13 21.8 71.2 40 7.6 45.7
17:45 1022 30.18 851 25.13 21.2 70.2 41 7.5 45.4
17:50 1022 30.18 851 25.13 20.9 69.7 41 7.2 45
17:55 1022 30.18 851 25.13 21.1 69.9 40 7.1 44.9
18:00 1022 30.18 851 25.13 20.9 69.7 43 8.1 46.6
18:05 1022 30.18 851 25.13 20.7 69.2 42 7.3 45.2
18:10 1022 30.18 851 25.13 21.1 70 40 7.3 45.2
18:15 1022 30.18 851 25.13 21.2 70.1 40 7.2 45
18:20 1022 30.18 851 25.13 21.3 70.3 38 6.6 43.8
18:25 1022 30.18 851 25.13 21.3 70.3 38 6.5 43.6
18:30 1022 30.18 851 25.13 21 69.8 38 6.4 43.5
18:35 1022 30.18 851 25.13 21.2 70.2 38 6.5 43.6
18:40 1022 30.18 851 25.13 21.3 70.3 37 6.3 43.3
18:45 1022 30.18 851 25.13 21.1 69.9 38 6.4 43.5
18:50 1022 30.18 851 25.13 20.9 69.6 39 6.7 44
18:55 1022 30.18 851 25.13 21 69.8 38 6.3 43.4
19:00 1022 30.18 851 25.13 20.9 69.6 39 6.7 44.1
19:05 1022 30.18 851 25.13 20.9 69.7 38 6.4 43.6
19:10 1022 30.18 851 25.13 21.1 70 39 6.9 44.4
19:15 1022 30.18 851 25.13 21 69.9 40 6.9 44.5
19:20 1022 30.18 851 25.13 21 69.8 41 7.5 45.4
19:25 1022 30.18 851 25.13 20.4 68.7 41 7 44.6
19:30 1022 30.18 851 25.13 20.2 68.3 42 7.2 45
19:35 1022 30.18 851 25.13 19.7 67.5 44 7.2 44.9
19:40 1022 30.18 851 25.13 19.7 67.5 44 7.2 45
19:45 1021 30.15 851 25.13 19.7 67.5 43 6.9 44.5
19:50 1021 30.15 851 25.13 19.5 67.2 43 6.9 44.4
19:55 1021 30.15 851 25.13 19.4 67 44 7 44.7
20:00 1021 30.15 851 25.13 19.5 67.2 43 6.7 44.1
20:05 1021 30.15 851 25.13 19.4 66.9 44 6.9 44.4
20:10 1021 30.15 851 25.13 19.3 66.7 44 6.8 44.3
20:15 1021 30.15 851 25.13 19.1 66.3 44 6.8 44.3
20:20 1021 30.15 851 25.13 19.1 66.3 44 6.8 44.2
20:25 1021 30.15 850 25.1 19.1 66.4 45 7.1 44.8
20:30 1021 30.15 850 25.1 18.9 66.1 46 7.2 45
20:35 1021 30.15 850 25.1 18.9 65.9 47 7.4 45.3
20:40 1021 30.15 850 25.1 18.8 65.8 47 7.4 45.3
20:45 1021 30.15 850 25.1 18.6 65.5 48 7.4 45.3
20:50 1021 30.15 850 25.1 18.6 65.4 47 7.3 45.1
20:55 1021 30.15 850 25.1 18.5 65.4 48 7.4 45.3
21:00 1021 30.15 850 25.1 18.5 65.2 48 7.3 45.1
21:05 1021 30.15 850 25.1 18.5 65.2 48 7.5 45.4
21:10 1021 30.15 850 25.1 18.4 65.1 49 7.7 45.9
21:15 1021 30.15 850 25.1 18.2 64.8 52 8.2 46.8
21:20 1021 30.15 850 25.1 17.9 64.3 56 9.1 48.4
21:25 1021 30.15 850 25.1 17.4 63.2 59 9.5 49
21:30 1021 30.15 850 25.1 16.7 62.1 62 9.5 49.2
21:35 1021 30.15 850 25.1 16.3 61.3 63 9.4 48.9
21:40 1021 30.15 850 25.1 16 60.8 65 9.4 49
21:45 1021 30.15 851 25.13 15.8 60.5 66 9.5 49
21:50 1021 30.15 851 25.13 15.7 60.2 67 9.5 49.2
21:55 1022 30.18 851 25.13 15.5 59.8 67 9.5 49.1
22:00 1022 30.18 851 25.13 15.3 59.6 68 9.4 48.9
22:05 1022 30.18 851 25.13 15.2 59.3 67 9.3 48.7
22:10 1022 30.18 851 25.13 14.9 58.9 69 9.3 48.7
22:15 1022 30.18 851 25.13 14.7 58.4 70 9.4 48.9
22:20 1022 30.18 851 25.13 14.3 57.8 71 9.2 48.5
22:25 1022 30.18 851 25.13 14 57.2 69 8.5 47.4
22:30 1022 30.18 851 25.13 13.7 56.6 70 8.4 47.2
22:35 1022 30.18 851 25.13 13.5 56.3 70 8.2 46.7
22:40 1022 30.18 851 25.13 13.5 56.3 70 8.2 46.8
22:45 1022 30.18 851 25.13 13.7 56.6 70 8.3 46.9
22:50 1022 30.18 851 25.13 13.7 56.6 70 8.3 47
22:55 1021 30.15 851 25.13 13.5 56.3 71 8.3 46.9
23:00 1021 30.15 851 25.13 13.3 56 72 8.4 47
23:05 1021 30.15 851 25.13 13.1 55.6 72 8.3 46.9
23:10 1021 30.15 851 25.13 12.9 55.2 73 8.2 46.7
23:15 1021 30.15 850 25.1 12.8 55 73 8.1 46.6
23:20 1021 30.15 850 25.1 12.6 54.7 73 8 46.4
23:25 1021 30.15 850 25.1 12.6 54.7 73 8 46.4
23:30 1021 30.15 850 25.1 12.7 54.9 72 7.9 46.2
23:35 1021 30.15 850 25.1 12.8 55 72 8 46.4
23:40 1021 30.15 850 25.1 12.7 54.9 73 8 46.3
23:45 1021 30.15 850 25.1 12.7 54.9 72 7.9 46.2
23:50 1021 30.15 850 25.1 12.6 54.7 72 7.7 45.9
23:55 1021 30.15 850 25.1 12.6 54.6 71 7.6 45.7
24:00 1021 30.15 850 25.1 12.8 55 71 7.6 45.7